Terminal Aerodrome Forecast
Issued by NWS

Home | Current Version | Previous Version | Text Only | Print | Product List | Glossary On
Versions: 1 2 3 4 5 6 7 8 9 10 11 12 13 14 15 16 17 18
000
FTUS46 KSGX 272346 CCA
TAFPSP
TAF COR
KPSP 272346Z 2800/2824 VRB05KT 6SM -RA OVC020
      TEMPO 2800/2802 4SM RA BR BKN006 OVC012
     FM280300 VRB05KT 6SM -RA SCT015 OVC030
     FM280500 VRB05KT P6SM VCSH SCT040 BKN060
     FM280800 VRB05KT P6SM SCT080
     FM281100 VRB05KT 4SM BR SCT005
      TEMPO 2812/2816 1SM BR BKN005
     FM281600 VRB05KT P6SM SKC=

USA.gov is the U.S. government's official web portal to all federal, state and local government web resources and services.